Time;durP1;ratioP1;P1;durP2;ratioP2;P2;SDS_P1;SDS_P2;PMS_P1;PMS_P2;Temp;Humidity;BMP_temperature;BMP_pressure;BME280_temperature;BME280_humidity;BME280_pressure;Samples;Min_cycle;Max_cycle;Signal;HPM_P1;HPM_P2
2022/03/22 00:00:31;;;;;;;21.75;11.52;;;;;;;;;;4945560;28;20091;-79
2022/03/22 00:02:57;;;;;;;23.25;10.85;;;;;;;;;;4933893;28;20231;-79
2022/03/22 00:05:23;;;;;;;23.20;10.70;;;;;;;;;;4942058;28;20020;-79
2022/03/22 00:07:49;;;;;;;20.10;10.68;;;;;;;;;;4942537;28;20024;-79
2022/03/22 00:10:15;;;;;;;21.30;10.23;;;;;;;;;;4930483;28;20086;-78
2022/03/22 00:12:41;;;;;;;17.27;9.63;;;;;;;;;;4949197;28;20534;-79
2022/03/22 00:15:08;;;;;;;20.58;9.35;;;;;;;;;;4948951;28;20035;-79
2022/03/22 00:17:34;;;;;;;20.25;10.43;;;;;;;;;;4947786;28;20027;-79
2022/03/22 00:20:00;;;;;;;17.63;9.32;;;;;;;;;;4947637;28;20030;-79
2022/03/22 00:22:26;;;;;;;17.42;10.05;;;;;;;;;;4942840;28;20382;-79
2022/03/22 00:24:51;;;;;;;20.50;9.90;;;;;;;;;;4941926;28;20043;-79
2022/03/22 00:27:17;;;;;;;19.30;10.50;;;;;;;;;;4942642;28;20027;-79
2022/03/22 00:29:42;;;;;;;20.55;10.13;;;;;;;;;;4946377;28;20118;-79
2022/03/22 00:32:08;;;;;;;16.20;9.57;;;;;;;;;;4946499;28;20028;-79
2022/03/22 00:34:35;;;;;;;19.27;9.98;;;;;;;;;;4942795;28;20032;-79
2022/03/22 00:37:00;;;;;;;18.33;10.10;;;;;;;;;;4952245;28;20031;-79
2022/03/22 00:39:26;;;;;;;17.50;9.65;;;;;;;;;;4946731;28;20028;-79
2022/03/22 00:42:07;;;;;;;17.45;9.65;;;;;;;;;;4947223;28;20030;-80
2022/03/22 00:44:32;;;;;;;21.15;9.38;;;;;;;;;;4949704;28;20051;-79
2022/03/22 00:46:59;;;;;;;20.73;9.95;;;;;;;;;;4948386;28;20031;-79
2022/03/22 00:49:25;;;;;;;17.75;9.63;;;;;;;;;;4950745;28;20121;-79
2022/03/22 00:51:50;;;;;;;19.55;9.10;;;;;;;;;;4947998;28;20047;-78
2022/03/22 00:54:15;;;;;;;20.10;8.77;;;;;;;;;;4952134;28;20036;-79
2022/03/22 00:56:41;;;;;;;20.65;9.48;;;;;;;;;;4956803;28;20034;-79
2022/03/22 01:01:51;;;;;;;18.50;9.40;;;;;;;;;;4968396;28;20465;-79
2022/03/22 01:04:16;;;;;;;17.02;9.05;;;;;;;;;;4969942;28;20027;-79
2022/03/22 01:06:41;;;;;;;16.65;8.40;;;;;;;;;;4973708;28;20473;-79
2022/03/22 01:09:07;;;;;;;17.48;9.10;;;;;;;;;;4976354;28;20027;-79
2022/03/22 01:11:32;;;;;;;14.75;9.20;;;;;;;;;;4977274;28;20110;-78
2022/03/22 01:13:58;;;;;;;14.35;8.65;;;;;;;;;;4961218;28;20113;-79
2022/03/22 01:16:23;;;;;;;20.08;9.15;;;;;;;;;;4961538;28;20033;-79
2022/03/22 01:18:48;;;;;;;17.38;8.63;;;;;;;;;;4978992;28;20026;-79
2022/03/22 01:21:14;;;;;;;18.30;8.48;;;;;;;;;;4978095;28;20022;-79
2022/03/22 01:23:39;;;;;;;15.98;8.50;;;;;;;;;;4978854;28;20023;-79
2022/03/22 01:26:06;;;;;;;18.48;9.60;;;;;;;;;;4974918;28;20094;-78
2022/03/22 01:28:31;;;;;;;17.45;9.65;;;;;;;;;;4976440;28;20023;-78
2022/03/22 01:30:56;;;;;;;17.75;9.73;;;;;;;;;;4976920;28;20037;-78
2022/03/22 01:33:22;;;;;;;13.60;9.13;;;;;;;;;;4976158;28;20041;-78
2022/03/22 01:35:47;;;;;;;17.48;9.73;;;;;;;;;;4972321;28;20042;-79
2022/03/22 01:38:12;;;;;;;18.50;9.23;;;;;;;;;;4974094;28;20034;-79
2022/03/22 01:40:38;;;;;;;14.90;8.77;;;;;;;;;;4961970;28;20022;-79
2022/03/22 01:43:04;;;;;;;14.55;8.98;;;;;;;;;;4978588;28;20014;-79
2022/03/22 01:45:30;;;;;;;18.90;9.70;;;;;;;;;;4978789;28;20022;-79
2022/03/22 01:48:01;;;;;;;13.70;8.77;;;;;;;;;;4966504;28;20031;-79
2022/03/22 01:50:27;;;;;;;20.27;9.38;;;;;;;;;;4939637;29;20035;-79
2022/03/22 01:52:54;;;;;;;16.85;9.50;;;;;;;;;;4947313;28;20389;-78
2022/03/22 01:55:20;;;;;;;18.40;9.38;;;;;;;;;;4974280;28;20031;-79
2022/03/22 01:57:46;;;;;;;21.25;9.80;;;;;;;;;;4973474;28;20114;-78
2022/03/22 02:00:15;;;;;;;19.10;9.15;;;;;;;;;;4978635;28;20433;-78
2022/03/22 02:08:16;;;;;;;15.70;8.40;;;;;;;;;;4977263;28;20050;-78
2022/03/22 02:10:42;;;;;;;16.77;9.43;;;;;;;;;;4973708;28;20023;-79
2022/03/22 02:13:07;;;;;;;22.73;10.25;;;;;;;;;;4977611;28;20081;-78
2022/03/22 02:15:33;;;;;;;16.33;8.82;;;;;;;;;;4977116;28;20066;-79
2022/03/22 02:17:59;;;;;;;37.90;10.02;;;;;;;;;;4977666;28;20019;-79
2022/03/22 02:20:25;;;;;;;32.42;10.05;;;;;;;;;;4977834;28;20034;-79
2022/03/22 02:23:15;;;;;;;18.05;9.23;;;;;;;;;;4977422;28;20033;-79
2022/03/22 02:25:40;;;;;;;16.35;8.38;;;;;;;;;;4953373;28;20099;-79
2022/03/22 02:28:06;;;;;;;17.88;8.95;;;;;;;;;;4967798;28;20442;-78
2022/03/22 02:30:32;;;;;;;16.88;9.57;;;;;;;;;;4975523;28;20117;-78
2022/03/22 02:33:01;;;;;;;18.73;9.75;;;;;;;;;;4952695;28;20045;-79
2022/03/22 02:35:28;;;;;;;17.63;10.10;;;;;;;;;;4952290;28;20106;-79
2022/03/22 02:37:54;;;;;;;17.73;9.52;;;;;;;;;;4973180;28;20027;-78
2022/03/22 02:40:20;;;;;;;20.42;9.63;;;;;;;;;;4977495;28;20034;-78
2022/03/22 02:42:50;;;;;;;20.63;9.27;;;;;;;;;;4976904;28;20041;-78
2022/03/22 02:45:17;;;;;;;19.30;9.27;;;;;;;;;;4971272;28;20077;-78
2022/03/22 02:47:44;;;;;;;19.98;9.40;;;;;;;;;;4979595;28;20109;-78
2022/03/22 02:50:10;;;;;;;16.95;9.43;;;;;;;;;;4967907;28;20485;-79
2022/03/22 02:52:37;;;;;;;15.93;8.82;;;;;;;;;;4966092;28;20027;-78
2022/03/22 02:55:04;;;;;;;19.75;9.43;;;;;;;;;;4977031;28;20027;-78
2022/03/22 02:57:29;;;;;;;17.42;9.68;;;;;;;;;;4967379;28;20116;-78
2022/03/22 02:59:54;;;;;;;23.00;9.50;;;;;;;;;;4956308;28;20095;-79
2022/03/22 03:02:20;;;;;;;15.77;9.50;;;;;;;;;;4957644;29;20031;-78
2022/03/22 03:04:45;;;;;;;20.15;9.93;;;;;;;;;;4960196;28;20031;-79
2022/03/22 03:07:10;;;;;;;16.67;9.18;;;;;;;;;;4959420;28;20111;-79
2022/03/22 03:09:36;;;;;;;17.85;9.27;;;;;;;;;;4972625;28;20027;-79
2022/03/22 03:12:01;;;;;;;21.13;9.45;;;;;;;;;;4974852;28;20106;-78
2022/03/22 03:14:38;;;;;;;17.17;10.10;;;;;;;;;;4959236;28;20042;-79
2022/03/22 03:17:09;;;;;;;17.58;9.80;;;;;;;;;;4977138;28;20027;-79
2022/03/22 03:19:34;;;;;;;18.30;10.35;;;;;;;;;;4972948;28;20027;-79
2022/03/22 03:22:00;;;;;;;18.55;10.48;;;;;;;;;;4974775;28;20445;-79
2022/03/22 03:24:26;;;;;;;16.52;9.95;;;;;;;;;;4977380;28;20030;-79
2022/03/22 03:26:51;;;;;;;18.23;10.38;;;;;;;;;;4967451;28;20231;-78
2022/03/22 03:29:17;;;;;;;16.77;9.40;;;;;;;;;;4977806;28;20090;-79
2022/03/22 03:31:42;;;;;;;18.58;9.80;;;;;;;;;;4972808;28;20173;-79
2022/03/22 03:34:07;;;;;;;18.98;10.60;;;;;;;;;;4977942;28;20033;-79
2022/03/22 03:36:33;;;;;;;16.38;9.25;;;;;;;;;;4973836;28;20050;-78
2022/03/22 03:38:59;;;;;;;19.33;9.60;;;;;;;;;;4981398;28;20027;-79
2022/03/22 03:47:07;;;;;;;17.70;9.35;;;;;;;;;;4994135;28;20018;-79
2022/03/22 03:49:43;;;;;;;18.00;9.35;;;;;;;;;;4992567;28;20145;-79
2022/03/22 03:52:17;;;;;;;19.17;10.07;;;;;;;;;;4990872;28;20027;-79
2022/03/22 03:54:43;;;;;;;17.05;9.77;;;;;;;;;;4992875;28;20035;-79
2022/03/22 03:57:09;;;;;;;23.15;10.98;;;;;;;;;;4987159;28;20077;-79
2022/03/22 03:59:35;;;;;;;17.98;10.48;;;;;;;;;;4991620;28;20033;-79
2022/03/22 04:02:02;;;;;;;19.65;10.90;;;;;;;;;;4986963;28;20022;-79
2022/03/22 04:04:28;;;;;;;27.15;11.10;;;;;;;;;;4973473;28;20027;-79
2022/03/22 04:06:53;;;;;;;21.73;10.63;;;;;;;;;;4955921;28;20035;-80
2022/03/22 04:09:19;;;;;;;14.88;8.95;;;;;;;;;;4971758;28;20035;-79
2022/03/22 04:11:45;;;;;;;19.55;9.93;;;;;;;;;;4960346;28;20027;-79
2022/03/22 04:14:11;;;;;;;21.08;10.02;;;;;;;;;;4972813;28;20510;-79
2022/03/22 04:16:36;;;;;;;22.15;9.88;;;;;;;;;;4958286;28;20082;-79
2022/03/22 04:19:08;;;;;;;18.45;10.05;;;;;;;;;;4956829;29;20054;-79
2022/03/22 04:21:37;;;;;;;19.30;10.63;;;;;;;;;;4956848;29;20028;-79
2022/03/22 04:24:11;;;;;;;19.95;9.30;;;;;;;;;;4956595;28;20289;-79
2022/03/22 04:26:39;;;;;;;15.98;9.80;;;;;;;;;;4952538;28;20429;-79
2022/03/22 04:34:34;;;;;;;19.88;9.90;;;;;;;;;;4979976;28;20362;-78
2022/03/22 04:37:00;;;;;;;17.27;9.82;;;;;;;;;;4980175;28;20034;-79
2022/03/22 04:39:27;;;;;;;16.52;9.10;;;;;;;;;;4974936;28;20058;-79
2022/03/22 04:41:53;;;;;;;17.77;9.35;;;;;;;;;;4964073;28;20058;-79
2022/03/22 04:44:18;;;;;;;16.45;8.82;;;;;;;;;;4970068;28;20029;-79
2022/03/22 04:46:44;;;;;;;20.67;9.45;;;;;;;;;;4974937;28;20030;-79
2022/03/22 04:49:10;;;;;;;19.48;10.20;;;;;;;;;;4979658;28;20027;-79
2022/03/22 04:57:03;;;;;;;21.63;9.43;;;;;;;;;;4974857;28;20025;-79
2022/03/22 04:59:29;;;;;;;16.67;9.40;;;;;;;;;;4977455;28;20026;-77
2022/03/22 05:01:54;;;;;;;22.98;9.32;;;;;;;;;;4960906;28;20059;-78
2022/03/22 05:04:20;;;;;;;21.85;9.77;;;;;;;;;;4962482;28;20082;-78
2022/03/22 05:06:45;;;;;;;20.83;10.10;;;;;;;;;;4982427;28;20027;-78
2022/03/22 05:09:11;;;;;;;20.08;9.75;;;;;;;;;;4978977;28;20066;-77
2022/03/22 05:11:37;;;;;;;21.10;9.32;;;;;;;;;;4957125;29;20371;-79
2022/03/22 05:14:03;;;;;;;19.70;10.05;;;;;;;;;;4958233;28;20035;-78
2022/03/22 05:16:32;;;;;;;18.35;9.90;;;;;;;;;;4958117;29;20111;-78
2022/03/22 05:18:58;;;;;;;19.88;9.82;;;;;;;;;;4958032;29;20099;-77
2022/03/22 05:21:24;;;;;;;22.02;9.95;;;;;;;;;;4956258;29;20061;-78
2022/03/22 05:23:50;;;;;;;19.63;10.02;;;;;;;;;;4957311;28;20023;-77
2022/03/22 05:26:16;;;;;;;23.95;10.57;;;;;;;;;;4958141;28;20018;-77
2022/03/22 05:28:43;;;;;;;20.45;9.75;;;;;;;;;;4977070;28;20106;-79
2022/03/22 05:31:11;;;;;;;20.17;9.95;;;;;;;;;;4974771;28;20023;-79
2022/03/22 05:33:37;;;;;;;19.83;10.02;;;;;;;;;;4975888;28;20019;-79
2022/03/22 05:36:04;;;;;;;18.65;8.75;;;;;;;;;;4960962;28;20185;-79
2022/03/22 05:38:30;;;;;;;20.90;9.95;;;;;;;;;;4974653;28;20014;-79
2022/03/22 05:40:56;;;;;;;17.05;9.68;;;;;;;;;;4968805;28;20033;-79
2022/03/22 05:43:21;;;;;;;18.95;9.52;;;;;;;;;;4979152;28;20026;-79
2022/03/22 05:45:48;;;;;;;24.80;10.95;;;;;;;;;;4978590;28;20556;-79
2022/03/22 05:48:18;;;;;;;18.80;9.85;;;;;;;;;;4978942;28;20038;-80
2022/03/22 05:50:43;;;;;;;19.75;9.93;;;;;;;;;;4977974;28;20030;-79
2022/03/22 05:53:10;;;;;;;39.00;10.70;;;;;;;;;;4925987;29;20102;-79
2022/03/22 05:55:39;;;;;;;22.98;9.63;;;;;;;;;;4939555;29;20047;-79
2022/03/22 05:58:05;;;;;;;45.35;11.98;;;;;;;;;;4973469;28;20035;-80
2022/03/22 06:00:31;;;;;;;27.77;10.13;;;;;;;;;;4961447;28;20381;-79
2022/03/22 06:02:57;;;;;;;21.15;11.05;;;;;;;;;;4978430;28;20019;-79
2022/03/22 06:05:23;;;;;;;30.63;10.38;;;;;;;;;;4962717;28;20026;-79
2022/03/22 06:07:49;;;;;;;22.95;10.20;;;;;;;;;;4955585;29;20031;-79
2022/03/22 06:10:14;;;;;;;25.45;11.00;;;;;;;;;;4950783;29;20050;-79
2022/03/22 06:12:44;;;;;;;18.23;9.65;;;;;;;;;;4957404;28;20418;-79
2022/03/22 06:15:18;;;;;;;19.00;9.82;;;;;;;;;;4976948;28;20139;-79
2022/03/22 06:17:50;;;;;;;18.23;9.80;;;;;;;;;;4922641;29;20040;-80
2022/03/22 06:20:17;;;;;;;;;;;;;;;;;;4940588;29;20031;-78
2022/03/22 06:22:42;;;;;;;18.38;10.10;;;;;;;;;;4941463;29;19914;-79
2022/03/22 06:25:09;;;;;;;18.52;10.05;;;;;;;;;;4952922;29;20107;-79
2022/03/22 06:27:36;;;;;;;20.67;11.35;;;;;;;;;;4940620;29;20082;-79
2022/03/22 06:30:06;;;;;;;21.67;10.80;;;;;;;;;;4950006;28;20030;-79
2022/03/22 06:32:40;;;;;;;25.20;11.48;;;;;;;;;;4970959;28;20033;-79
2022/03/22 06:35:05;;;;;;;20.08;11.43;;;;;;;;;;4978888;28;20042;-79
2022/03/22 06:37:31;;;;;;;22.30;12.15;;;;;;;;;;4979129;28;20030;-79
2022/03/22 06:39:56;;;;;;;21.77;11.63;;;;;;;;;;4977420;28;20034;-80
2022/03/22 06:42:22;;;;;;;25.77;11.68;;;;;;;;;;4975616;28;20031;-79
2022/03/22 06:44:47;;;;;;;19.70;11.32;;;;;;;;;;4968669;28;20505;-80
2022/03/22 06:47:13;;;;;;;27.20;10.88;;;;;;;;;;4956526;29;20051;-80
2022/03/22 06:49:38;;;;;;;35.38;13.13;;;;;;;;;;4955149;28;20038;-80
2022/03/22 06:52:04;;;;;;;23.60;12.93;;;;;;;;;;4940887;29;20026;-81
2022/03/22 06:54:29;;;;;;;32.58;16.10;;;;;;;;;;4957140;28;20031;-83
2022/03/22 06:56:55;;;;;;;19.30;11.65;;;;;;;;;;4959235;28;20098;-80
2022/03/22 06:59:20;;;;;;;22.33;11.65;;;;;;;;;;4977767;28;20492;-80
2022/03/22 07:01:46;;;;;;;25.15;12.13;;;;;;;;;;4977466;28;20033;-81
2022/03/22 07:04:11;;;;;;;22.50;11.93;;;;;;;;;;4975900;28;20031;-81
2022/03/22 07:06:36;;;;;;;22.85;12.45;;;;;;;;;;4962040;28;20041;-80
2022/03/22 07:09:02;;;;;;;26.65;12.57;;;;;;;;;;4963408;28;20610;-80
2022/03/22 07:14:11;;;;;;;19.33;11.82;;;;;;;;;;4967044;28;20039;-80
2022/03/22 07:16:36;;;;;;;19.45;11.77;;;;;;;;;;4965699;28;20023;-80
2022/03/22 07:19:02;;;;;;;22.02;12.65;;;;;;;;;;4975141;28;20481;-79
2022/03/22 07:21:29;;;;;;;21.73;12.68;;;;;;;;;;4977423;28;20083;-80
2022/03/22 07:23:55;;;;;;;23.38;12.18;;;;;;;;;;4976955;28;20438;-80
2022/03/22 07:26:20;;;;;;;23.70;12.00;;;;;;;;;;4968439;28;20030;-80
2022/03/22 07:28:46;;;;;;;26.73;13.23;;;;;;;;;;4964515;28;20030;-80
2022/03/22 07:31:11;;;;;;;25.48;12.65;;;;;;;;;;4941922;28;20107;-79
2022/03/22 07:33:37;;;;;;;16.95;11.70;;;;;;;;;;4955697;28;20015;-80
2022/03/22 07:36:03;;;;;;;19.83;11.02;;;;;;;;;;4974610;28;20034;-80
2022/03/22 07:38:28;;;;;;;20.45;11.75;;;;;;;;;;4964221;28;20027;-80
2022/03/22 07:40:54;;;;;;;25.08;11.15;;;;;;;;;;4957303;28;20027;-80
2022/03/22 07:43:19;;;;;;;25.23;10.88;;;;;;;;;;4960513;28;20047;-78
2022/03/22 07:45:44;;;;;;;22.27;11.20;;;;;;;;;;4973333;28;20030;-80
2022/03/22 07:48:10;;;;;;;22.70;11.00;;;;;;;;;;4976867;28;20027;-80
2022/03/22 07:53:19;;;;;;;20.58;11.05;;;;;;;;;;4977429;28;20033;-81
2022/03/22 07:55:44;;;;;;;20.38;10.93;;;;;;;;;;4969911;28;21117;-80
2022/03/22 07:58:11;;;;;;;20.77;11.80;;;;;;;;;;4958623;28;20110;-79
2022/03/22 08:00:38;;;;;;;20.65;11.38;;;;;;;;;;4958344;28;20031;-81
2022/03/22 08:03:05;;;;;;;18.60;10.55;;;;;;;;;;4971005;28;20474;-81
2022/03/22 08:05:32;;;;;;;16.48;10.35;;;;;;;;;;4975448;28;20278;-79
2022/03/22 08:07:59;;;;;;;20.00;11.25;;;;;;;;;;4924756;29;20031;-81
2022/03/22 08:10:26;;;;;;;17.33;10.50;;;;;;;;;;4956162;28;20027;-80
2022/03/22 08:12:53;;;;;;;28.25;11.63;;;;;;;;;;4980507;28;20054;-81
2022/03/22 08:15:19;;;;;;;19.35;10.50;;;;;;;;;;4962695;28;20416;-81
2022/03/22 08:17:45;;;;;;;19.55;11.07;;;;;;;;;;4979400;28;20109;-81
2022/03/22 08:20:12;;;;;;;18.98;10.80;;;;;;;;;;4963233;28;20129;-80
2022/03/22 08:22:49;;;;;;;19.67;10.73;;;;;;;;;;4984559;28;20087;-83
2022/03/22 08:25:16;;;;;;;20.25;11.00;;;;;;;;;;4980549;28;20035;-80
2022/03/22 08:27:41;;;;;;;19.23;11.00;;;;;;;;;;4975382;28;20109;-80
2022/03/22 08:30:07;;;;;;;19.60;11.48;;;;;;;;;;4979422;28;20066;-81
2022/03/22 08:32:33;;;;;;;18.13;11.43;;;;;;;;;;4937298;29;20028;-80
2022/03/22 08:34:58;;;;;;;16.83;10.63;;;;;;;;;;4955800;28;20038;-83
2022/03/22 08:37:23;;;;;;;18.48;10.77;;;;;;;;;;4973804;28;20043;-83
2022/03/22 08:39:52;;;;;;;15.85;10.65;;;;;;;;;;4963351;29;20090;-82
2022/03/22 08:42:17;;;;;;;19.08;11.13;;;;;;;;;;4945033;29;20004;-81
2022/03/22 08:44:44;;;;;;;17.08;10.85;;;;;;;;;;4942545;29;20086;-80
2022/03/22 08:47:09;;;;;;;18.90;10.48;;;;;;;;;;4946672;29;20039;-80
2022/03/22 08:49:35;;;;;;;23.40;11.38;;;;;;;;;;4946939;29;20031;-80
2022/03/22 08:52:00;;;;;;;20.10;11.10;;;;;;;;;;4960537;29;20101;-80
2022/03/22 08:54:27;;;;;;;21.65;11.55;;;;;;;;;;4962651;28;20029;-80
2022/03/22 08:56:53;;;;;;;23.35;12.48;;;;;;;;;;4946028;28;20030;-82
2022/03/22 08:59:18;;;;;;;17.95;10.98;;;;;;;;;;4966114;28;20094;-80
2022/03/22 09:01:45;;;;;;;16.35;10.80;;;;;;;;;;4977930;28;20055;-84
2022/03/22 09:06:56;;;;;;;18.35;11.23;;;;;;;;;;4950325;28;20070;-82
2022/03/22 09:09:21;;;;;;;19.02;10.70;;;;;;;;;;4983173;28;20027;-82
2022/03/22 09:11:49;;;;;;;17.40;10.07;;;;;;;;;;4965322;28;20031;-82
2022/03/22 09:14:15;;;;;;;20.20;10.68;;;;;;;;;;4965368;28;20059;-82
2022/03/22 09:16:40;;;;;;;16.73;10.55;;;;;;;;;;4966676;28;20360;-80
2022/03/22 09:19:05;;;;;;;20.00;10.65;;;;;;;;;;4984136;28;20034;-81
2022/03/22 09:21:31;;;;;;;17.20;11.10;;;;;;;;;;4981941;28;20114;-81
2022/03/22 09:23:56;;;;;;;17.45;10.55;;;;;;;;;;4949137;28;20118;-81
2022/03/22 09:26:22;;;;;;;24.73;10.68;;;;;;;;;;4971374;28;20015;-81
2022/03/22 09:28:52;;;;;;;18.20;9.93;;;;;;;;;;4970335;28;20027;-81
2022/03/22 09:31:18;;;;;;;18.65;11.13;;;;;;;;;;4959763;29;20031;-80
2022/03/22 09:33:43;;;;;;;19.05;10.52;;;;;;;;;;4943030;28;20191;-82
2022/03/22 09:36:08;;;;;;;18.02;11.23;;;;;;;;;;4959411;29;20035;-82
2022/03/22 09:38:34;;;;;;;21.65;11.65;;;;;;;;;;4966209;29;20027;-85
2022/03/22 09:41:00;;;;;;;17.17;10.70;;;;;;;;;;4966917;29;20035;-85
2022/03/22 09:43:28;;;;;;;18.65;10.65;;;;;;;;;;4966500;29;20040;-85
2022/03/22 09:45:55;;;;;;;16.83;9.85;;;;;;;;;;4966273;29;20030;-84
2022/03/22 09:48:21;;;;;;;19.70;10.80;;;;;;;;;;4980991;28;20027;-83
2022/03/22 09:53:32;;;;;;;17.70;10.90;;;;;;;;;;4964346;28;20038;-83
2022/03/22 09:55:57;;;;;;;23.67;11.02;;;;;;;;;;4961596;28;20106;-84
2022/03/22 09:58:22;;;;;;;15.02;9.77;;;;;;;;;;4982189;28;20397;-85
2022/03/22 10:00:49;;;;;;;16.30;9.82;;;;;;;;;;4967358;28;20114;-85
2022/03/22 10:03:20;;;;;;;20.67;10.15;;;;;;;;;;4966977;28;20041;-85
2022/03/22 10:06:07;;;;;;;16.30;10.18;;;;;;;;;;4965977;28;20478;-83
2022/03/22 10:08:36;;;;;;;17.05;10.32;;;;;;;;;;4955034;28;20366;-84
2022/03/22 10:11:02;;;;;;;19.85;11.68;;;;;;;;;;4984141;28;20039;-83
2022/03/22 10:13:29;;;;;;;18.40;10.80;;;;;;;;;;4984725;28;20565;-84
2022/03/22 10:16:03;;;;;;;17.55;10.80;;;;;;;;;;4983586;28;20034;-84
2022/03/22 10:18:28;;;;;;;18.80;9.77;;;;;;;;;;4966287;28;20539;-82
2022/03/22 10:21:02;;;;;;;16.73;10.95;;;;;;;;;;4974710;28;20031;-83
2022/03/22 10:23:31;;;;;;;16.65;10.48;;;;;;;;;;4964520;28;20027;-83
2022/03/22 10:26:07;;;;;;;20.30;10.65;;;;;;;;;;4965152;28;20035;-83
2022/03/22 10:28:34;;;;;;;17.50;11.15;;;;;;;;;;4986835;28;20022;-82
2022/03/22 10:30:59;;;;;;;15.32;9.90;;;;;;;;;;4988147;28;20034;-85
2022/03/22 10:33:25;;;;;;;17.90;10.43;;;;;;;;;;4987935;28;20023;-82
2022/03/22 10:35:50;;;;;;;17.00;10.35;;;;;;;;;;4967804;28;20019;-84
2022/03/22 10:38:19;;;;;;;20.83;10.25;;;;;;;;;;4987075;28;20027;-83
2022/03/22 10:40:46;;;;;;;16.90;10.30;;;;;;;;;;4960194;28;20101;-84
2022/03/22 10:43:18;;;;;;;16.90;10.63;;;;;;;;;;4987360;28;20401;-84
2022/03/22 10:46:00;;;;;;;18.83;10.35;;;;;;;;;;4986483;28;20022;-84
2022/03/22 10:48:34;;;;;;;20.40;10.77;;;;;;;;;;4985573;28;20029;-84
2022/03/22 10:51:01;;;;;;;16.20;10.90;;;;;;;;;;4968389;28;20034;-82
2022/03/22 10:53:28;;;;;;;15.40;10.65;;;;;;;;;;4986120;28;20084;-82
2022/03/22 10:55:57;;;;;;;21.50;11.07;;;;;;;;;;4973973;28;20020;-82
2022/03/22 10:58:28;;;;;;;17.35;10.75;;;;;;;;;;4968374;28;20019;-83
2022/03/22 11:00:56;;;;;;;19.02;11.15;;;;;;;;;;4983221;28;20030;-82
2022/03/22 11:03:24;;;;;;;17.58;10.55;;;;;;;;;;4967860;28;20031;-83
2022/03/22 11:05:53;;;;;;;14.40;10.63;;;;;;;;;;4967770;28;20035;-81
2022/03/22 11:08:20;;;;;;;14.75;10.07;;;;;;;;;;4977727;28;20030;-82
2022/03/22 11:10:46;;;;;;;15.90;10.13;;;;;;;;;;4978159;28;20397;-81
2022/03/22 11:13:11;;;;;;;14.52;10.02;;;;;;;;;;4983755;28;20019;-82
2022/03/22 11:15:40;;;;;;;17.75;9.27;;;;;;;;;;4964248;28;20058;-83
2022/03/22 11:18:07;;;;;;;15.98;9.90;;;;;;;;;;4957798;28;20031;-82
2022/03/22 11:20:32;;;;;;;20.20;12.07;;;;;;;;;;4948183;29;20401;-83
2022/03/22 11:23:00;;;;;;;23.08;11.35;;;;;;;;;;4962687;29;20027;-81
2022/03/22 11:25:36;;;;;;;21.75;11.18;;;;;;;;;;4970533;28;20066;-82
2022/03/22 11:28:16;;;;;;;15.77;10.23;;;;;;;;;;4986058;28;20026;-81
2022/03/22 11:30:41;;;;;;;15.65;10.05;;;;;;;;;;4982101;28;20018;-82
2022/03/22 11:35:53;;;;;;;17.83;11.55;;;;;;;;;;4982341;28;20041;-81
2022/03/22 11:38:44;;;;;;;13.68;9.52;;;;;;;;;;4968019;28;20027;-81
2022/03/22 11:44:36;;;;;;;15.55;10.70;;;;;;;;;;4947002;29;20051;-81
2022/03/22 11:47:07;;;;;;;21.15;11.27;;;;;;;;;;4942100;29;20370;-80
2022/03/22 11:49:49;;;;;;;14.95;10.48;;;;;;;;;;4941740;29;20058;-84
2022/03/22 11:52:15;;;;;;;16.73;11.00;;;;;;;;;;4940565;29;20087;-84
2022/03/22 11:54:57;;;;;;;15.25;10.75;;;;;;;;;;4941311;29;20038;-80
2022/03/22 11:57:23;;;;;;;18.70;11.02;;;;;;;;;;4965879;28;20023;-81
2022/03/22 11:59:52;;;;;;;16.42;10.23;;;;;;;;;;4979343;28;20058;-81
2022/03/22 12:02:27;;;;;;;18.75;11.35;;;;;;;;;;4969236;28;20020;-82
2022/03/22 12:04:54;;;;;;;19.77;10.60;;;;;;;;;;4962526;28;20027;-81
2022/03/22 12:07:32;;;;;;;16.98;10.25;;;;;;;;;;4967004;28;20015;-80
2022/03/22 12:10:19;;;;;;;21.15;11.43;;;;;;;;;;4982368;28;20027;-81
2022/03/22 12:12:49;;;;;;;18.98;10.23;;;;;;;;;;4984523;28;20110;-82
2022/03/22 12:15:19;;;;;;;21.48;10.70;;;;;;;;;;4972261;28;20023;-82
2022/03/22 12:17:45;;;;;;;16.98;11.15;;;;;;;;;;4981962;28;20091;-81
2022/03/22 12:20:16;;;;;;;15.98;10.70;;;;;;;;;;4980724;28;20026;-82
2022/03/22 12:22:58;;;;;;;19.97;12.07;;;;;;;;;;4962770;28;20102;-82
2022/03/22 12:25:25;;;;;;;14.50;10.30;;;;;;;;;;4981375;28;20030;-81
2022/03/22 12:27:54;;;;;;;22.65;12.32;;;;;;;;;;4977408;28;20037;-83
2022/03/22 12:30:21;;;;;;;17.58;11.18;;;;;;;;;;4955724;28;20195;-81
2022/03/22 12:32:54;;;;;;;18.45;11.00;;;;;;;;;;4961234;28;20102;-81
2022/03/22 12:35:21;;;;;;;21.92;11.05;;;;;;;;;;4963330;28;20022;-82
2022/03/22 12:37:48;;;;;;;19.02;11.63;;;;;;;;;;4978500;28;20070;-84
2022/03/22 12:40:16;;;;;;;18.33;10.65;;;;;;;;;;4963639;28;20035;-83
2022/03/22 12:42:42;;;;;;;25.35;11.13;;;;;;;;;;4963407;29;20019;-83
2022/03/22 12:45:10;;;;;;;16.92;10.77;;;;;;;;;;4962914;29;20027;-82
2022/03/22 12:47:39;;;;;;;18.70;11.60;;;;;;;;;;4954547;29;20035;-83
2022/03/22 12:50:07;;;;;;;17.02;10.90;;;;;;;;;;4957485;29;20046;-82
2022/03/22 12:52:32;;;;;;;16.55;11.40;;;;;;;;;;4961477;29;20618;-83
2022/03/22 12:54:58;;;;;;;21.58;12.27;;;;;;;;;;4968097;29;20034;-80
2022/03/22 12:57:24;;;;;;;19.17;11.18;;;;;;;;;;4964454;28;20027;-82
2022/03/22 12:59:49;;;;;;;18.45;11.85;;;;;;;;;;4964900;28;20398;-80
2022/03/22 13:02:15;;;;;;;20.20;11.63;;;;;;;;;;4939590;28;20019;-82
2022/03/22 13:04:48;;;;;;;33.22;11.63;;;;;;;;;;4943227;29;20083;-82
2022/03/22 13:07:22;;;;;;;23.25;11.65;;;;;;;;;;4958895;28;20023;-81
2022/03/22 13:12:33;;;;;;;17.60;11.93;;;;;;;;;;4942004;29;20062;-80
2022/03/22 13:15:12;;;;;;;18.20;10.82;;;;;;;;;;4942924;29;20050;-80
2022/03/22 13:17:43;;;;;;;20.80;10.65;;;;;;;;;;4961299;29;20027;-81
2022/03/22 13:20:16;;;;;;;15.52;11.18;;;;;;;;;;4960585;29;20038;-81
2022/03/22 13:22:54;;;;;;;30.17;11.85;;;;;;;;;;4943190;29;20374;-80
2022/03/22 13:25:30;;;;;;;27.80;12.40;;;;;;;;;;4963232;28;20027;-80
2022/03/22 13:28:01;;;;;;;22.30;11.32;;;;;;;;;;4978407;28;20030;-80
2022/03/22 13:30:28;;;;;;;19.45;11.80;;;;;;;;;;4980237;28;20512;-81
2022/03/22 13:33:05;;;;;;;18.38;10.20;;;;;;;;;;4966391;28;20027;-80
2022/03/22 13:35:31;;;;;;;20.83;10.93;;;;;;;;;;4972911;28;20022;-81
2022/03/22 13:37:56;;;;;;;17.40;11.32;;;;;;;;;;4955398;28;20109;-81
2022/03/22 13:40:22;;;;;;;19.27;11.77;;;;;;;;;;4980240;28;20460;-81
2022/03/22 13:42:59;;;;;;;14.38;10.43;;;;;;;;;;4937539;28;20039;-80
2022/03/22 13:45:25;;;;;;;17.85;10.63;;;;;;;;;;4950282;28;20482;-80
2022/03/22 13:47:52;;;;;;;20.95;10.40;;;;;;;;;;4951883;28;20777;-80
2022/03/22 13:50:18;;;;;;;15.52;10.88;;;;;;;;;;4935164;28;20110;-79
2022/03/22 13:52:45;;;;;;;16.48;10.65;;;;;;;;;;4952200;28;20102;-80
2022/03/22 13:55:21;;;;;;;19.52;11.57;;;;;;;;;;4930740;28;20482;-79
2022/03/22 13:57:48;;;;;;;16.30;11.18;;;;;;;;;;4944036;28;20032;-80
2022/03/22 14:00:14;;;;;;;17.77;10.60;;;;;;;;;;4958763;28;20039;-80
2022/03/22 14:02:39;;;;;;;20.23;10.00;;;;;;;;;;4953207;28;20053;-79
2022/03/22 14:05:05;;;;;;;17.85;9.95;;;;;;;;;;4950934;28;20042;-80
2022/03/22 14:07:30;;;;;;;18.02;10.32;;;;;;;;;;4955572;28;20490;-79
2022/03/22 14:09:56;;;;;;;21.50;9.93;;;;;;;;;;4955044;28;20461;-80
2022/03/22 14:12:21;;;;;;;15.05;10.07;;;;;;;;;;4936083;29;20027;-80
2022/03/22 14:14:46;;;;;;;21.30;10.38;;;;;;;;;;4958031;29;20043;-80
2022/03/22 14:17:12;;;;;;;17.92;10.80;;;;;;;;;;4956868;29;20027;-80
2022/03/22 14:19:37;;;;;;;18.65;10.82;;;;;;;;;;4972363;28;20027;-80
2022/03/22 14:22:03;;;;;;;17.95;11.15;;;;;;;;;;4956856;29;20055;-82
2022/03/22 14:24:28;;;;;;;19.95;10.63;;;;;;;;;;4959290;28;20022;-80
2022/03/22 14:26:55;;;;;;;16.27;10.18;;;;;;;;;;4966494;28;20093;-79
2022/03/22 14:29:20;;;;;;;15.95;10.13;;;;;;;;;;4959010;28;20031;-79
2022/03/22 14:31:46;;;;;;;15.82;10.38;;;;;;;;;;4976316;28;20023;-80
2022/03/22 14:35:46;;;;;;;15.32;9.93;;;;;;;;;;4971715;28;20518;-81
2022/03/22 14:36:57;;;;;;;15.07;9.80;;;;;;;;;;4974881;28;20039;-79
2022/03/22 14:39:22;;;;;;;15.15;11.10;;;;;;;;;;4942843;29;20026;-79
2022/03/22 14:41:47;;;;;;;21.63;10.75;;;;;;;;;;4958687;29;20034;-79
2022/03/22 14:44:13;;;;;;;26.13;11.50;;;;;;;;;;4958236;28;20111;-79
2022/03/22 14:46:38;;;;;;;15.75;10.18;;;;;;;;;;4959206;29;20114;-80
2022/03/22 14:49:04;;;;;;;15.85;10.38;;;;;;;;;;4957730;29;20094;-80
2022/03/22 14:54:14;;;;;;;21.60;10.38;;;;;;;;;;4957732;28;20037;-80
2022/03/22 14:59:23;;;;;;;20.10;10.90;;;;;;;;;;4974194;28;20037;-78
2022/03/22 15:01:49;;;;;;;17.42;10.55;;;;;;;;;;4975066;28;20221;-82
2022/03/22 15:04:15;;;;;;;26.85;10.18;;;;;;;;;;4972756;28;20026;-80
2022/03/22 15:06:42;;;;;;;19.60;10.68;;;;;;;;;;4976140;28;20477;-79
2022/03/22 15:09:08;;;;;;;20.15;11.07;;;;;;;;;;4976580;28;20034;-79
2022/03/22 15:11:34;;;;;;;17.77;10.55;;;;;;;;;;4976137;28;20027;-79